sensor_id;sensor_type;location;lat;lon;timestamp;pressure;altitude;pressure_sealevel;temperature;humidity
69911;BME280;63555;49.920;17.868;2023-01-31T00:00:10;98155.69;;;1.40;88.89
69911;BME280;63555;49.920;17.868;2023-01-31T00:05:11;98150.97;;;1.48;88.53
69911;BME280;63555;49.920;17.868;2023-01-31T00:10:11;98147.38;;;1.51;88.22
69911;BME280;63555;49.920;17.868;2023-01-31T00:15:12;98148.06;;;1.54;87.68
69911;BME280;63555;49.920;17.868;2023-01-31T00:20:15;98147.78;;;1.60;88.51
69911;BME280;63555;49.920;17.868;2023-01-31T00:25:16;98151.81;;;1.66;87.90
69911;BME280;63555;49.920;17.868;2023-01-31T00:30:16;98183.56;;;1.73;87.68
69911;BME280;63555;49.920;17.868;2023-01-31T00:35:16;98182.44;;;1.78;87.87
69911;BME280;63555;49.920;17.868;2023-01-31T00:40:17;98194.44;;;1.81;88.06
69911;BME280;63555;49.920;17.868;2023-01-31T00:45:17;98199.34;;;1.87;86.68
69911;BME280;63555;49.920;17.868;2023-01-31T00:50:18;98205.00;;;1.95;86.78
69911;BME280;63555;49.920;17.868;2023-01-31T00:55:18;98207.53;;;1.97;86.56
69911;BME280;63555;49.920;17.868;2023-01-31T01:00:19;98202.47;;;1.94;86.30
69911;BME280;63555;49.920;17.868;2023-01-31T01:05:19;98212.09;;;1.91;86.26
69911;BME280;63555;49.920;17.868;2023-01-31T01:10:19;98216.63;;;1.88;86.79
69911;BME280;63555;49.920;17.868;2023-01-31T01:15:20;98218.44;;;1.86;86.67
69911;BME280;63555;49.920;17.868;2023-01-31T01:20:20;98215.09;;;1.84;86.88
69911;BME280;63555;49.920;17.868;2023-01-31T01:25:20;98213.31;;;1.84;86.26
69911;BME280;63555;49.920;17.868;2023-01-31T01:30:21;98225.41;;;1.85;86.97
69911;BME280;63555;49.920;17.868;2023-01-31T01:35:21;98233.06;;;1.88;86.54
69911;BME280;63555;49.920;17.868;2023-01-31T01:40:22;98235.72;;;1.87;86.70
69911;BME280;63555;49.920;17.868;2023-01-31T01:45:22;98242.91;;;1.82;86.72
69911;BME280;63555;49.920;17.868;2023-01-31T01:50:37;98233.44;;;1.81;86.86
69911;BME280;63555;49.920;17.868;2023-01-31T01:55:43;98248.25;;;1.79;87.01
69911;BME280;63555;49.920;17.868;2023-01-31T02:00:46;98245.59;;;1.80;86.38
69911;BME280;63555;49.920;17.868;2023-01-31T02:05:53;98243.59;;;1.85;86.99
69911;BME280;63555;49.920;17.868;2023-01-31T02:11:00;98247.97;;;1.85;86.73
69911;BME280;63555;49.920;17.868;2023-01-31T02:16:02;98249.72;;;1.84;86.69
69911;BME280;63555;49.920;17.868;2023-01-31T02:37:36;98282.06;;;1.96;85.87
69911;BME280;63555;49.920;17.868;2023-01-31T02:42:51;98287.22;;;1.98;85.15
69911;BME280;63555;49.920;17.868;2023-01-31T02:48:01;98301.34;;;1.92;85.22
69911;BME280;63555;49.920;17.868;2023-01-31T02:58:26;98320.03;;;1.63;85.00
69911;BME280;63555;49.920;17.868;2023-01-31T03:03:30;98360.72;;;1.45;85.47
69911;BME280;63555;49.920;17.868;2023-01-31T03:08:31;98345.44;;;1.00;84.85
69911;BME280;63555;49.920;17.868;2023-01-31T03:18:51;98337.19;;;0.49;86.43
69911;BME280;63555;49.920;17.868;2023-01-31T03:23:55;98357.22;;;0.46;87.52
69911;BME280;63555;49.920;17.868;2023-01-31T03:29:00;98360.59;;;0.48;87.62
69911;BME280;63555;49.920;17.868;2023-01-31T03:34:03;98357.94;;;0.49;87.75
69911;BME280;63555;49.920;17.868;2023-01-31T03:44:25;98360.53;;;0.49;87.83
69911;BME280;63555;49.920;17.868;2023-01-31T03:49:29;98375.72;;;0.58;88.03
69911;BME280;63555;49.920;17.868;2023-01-31T03:54:35;98384.78;;;0.69;88.01
69911;BME280;63555;49.920;17.868;2023-01-31T03:59:38;98387.78;;;0.80;87.76
69911;BME280;63555;49.920;17.868;2023-01-31T04:04:46;98394.47;;;0.85;87.50
69911;BME280;63555;49.920;17.868;2023-01-31T04:09:48;98390.94;;;0.88;87.53
69911;BME280;63555;49.920;17.868;2023-01-31T04:14:48;98410.72;;;0.90;86.86
69911;BME280;63555;49.920;17.868;2023-01-31T04:19:48;98408.53;;;0.80;86.21
69911;BME280;63555;49.920;17.868;2023-01-31T04:24:49;98414.31;;;0.66;85.61
69911;BME280;63555;49.920;17.868;2023-01-31T04:29:49;98419.16;;;0.53;85.35
69911;BME280;63555;49.920;17.868;2023-01-31T04:34:49;98432.50;;;0.44;84.85
69911;BME280;63555;49.920;17.868;2023-01-31T04:39:50;98436.38;;;0.34;84.52
69911;BME280;63555;49.920;17.868;2023-01-31T04:44:50;98440.00;;;0.30;84.65
69911;BME280;63555;49.920;17.868;2023-01-31T04:49:50;98464.91;;;0.34;85.65
69911;BME280;63555;49.920;17.868;2023-01-31T04:54:51;98473.47;;;0.36;85.55
69911;BME280;63555;49.920;17.868;2023-01-31T04:59:51;98470.81;;;0.38;86.15
69911;BME280;63555;49.920;17.868;2023-01-31T05:04:51;98488.06;;;0.39;86.27
69911;BME280;63555;49.920;17.868;2023-01-31T05:09:52;98495.91;;;0.37;86.64
69911;BME280;63555;49.920;17.868;2023-01-31T05:14:53;98495.16;;;0.34;86.29
69911;BME280;63555;49.920;17.868;2023-01-31T05:19:53;98502.28;;;0.28;86.17
69911;BME280;63555;49.920;17.868;2023-01-31T05:24:54;98493.06;;;0.21;85.44
69911;BME280;63555;49.920;17.868;2023-01-31T05:29:54;98498.69;;;0.09;85.55
69911;BME280;63555;49.920;17.868;2023-01-31T05:34:55;98517.91;;;0.04;85.90
69911;BME280;63555;49.920;17.868;2023-01-31T05:39:55;98525.03;;;-0.03;86.01
69911;BME280;63555;49.920;17.868;2023-01-31T05:44:56;98526.84;;;-0.05;86.50
69911;BME280;63555;49.920;17.868;2023-01-31T05:49:56;98527.59;;;-0.02;86.45
69911;BME280;63555;49.920;17.868;2023-01-31T05:54:56;98529.44;;;-0.05;86.47
69911;BME280;63555;49.920;17.868;2023-01-31T05:59:57;98541.56;;;-0.06;86.42
69911;BME280;63555;49.920;17.868;2023-01-31T06:04:57;98545.84;;;-0.05;86.63
69911;BME280;63555;49.920;17.868;2023-01-31T06:09:57;98557.84;;;-0.02;86.49
69911;BME280;63555;49.920;17.868;2023-01-31T06:14:58;98573.25;;;0.03;86.71
69911;BME280;63555;49.920;17.868;2023-01-31T06:19:58;98581.50;;;0.14;86.58
69911;BME280;63555;49.920;17.868;2023-01-31T06:24:58;98597.56;;;0.23;86.22
69911;BME280;63555;49.920;17.868;2023-01-31T06:29:59;98595.41;;;0.35;85.83
69911;BME280;63555;49.920;17.868;2023-01-31T06:34:59;98610.69;;;0.42;85.74
69911;BME280;63555;49.920;17.868;2023-01-31T06:40:00;98633.63;;;0.53;86.47
69911;BME280;63555;49.920;17.868;2023-01-31T06:45:00;98638.59;;;0.59;86.37
69911;BME280;63555;49.920;17.868;2023-01-31T06:50:00;98651.44;;;0.62;86.35
69911;BME280;63555;49.920;17.868;2023-01-31T06:55:01;98658.16;;;0.68;85.78
69911;BME280;63555;49.920;17.868;2023-01-31T07:00:02;98653.69;;;0.71;86.21
69911;BME280;63555;49.920;17.868;2023-01-31T07:05:03;98662.09;;;0.78;85.77
69911;BME280;63555;49.920;17.868;2023-01-31T07:10:04;98678.28;;;0.84;85.58
69911;BME280;63555;49.920;17.868;2023-01-31T07:15:05;98677.13;;;0.93;86.09
69911;BME280;63555;49.920;17.868;2023-01-31T07:20:06;98687.09;;;1.04;85.40
69911;BME280;63555;49.920;17.868;2023-01-31T07:25:07;98691.19;;;1.09;85.51
69911;BME280;63555;49.920;17.868;2023-01-31T07:30:08;98688.59;;;1.09;86.13
69911;BME280;63555;49.920;17.868;2023-01-31T07:35:09;98675.63;;;1.09;85.51
69911;BME280;63555;49.920;17.868;2023-01-31T07:40:10;98685.03;;;1.12;86.02
69911;BME280;63555;49.920;17.868;2023-01-31T07:45:12;98691.69;;;1.19;85.71
69911;BME280;63555;49.920;17.868;2023-01-31T07:50:13;98698.34;;;1.26;85.73
69911;BME280;63555;49.920;17.868;2023-01-31T07:55:13;98692.06;;;1.32;86.03
69911;BME280;63555;49.920;17.868;2023-01-31T08:00:14;98703.09;;;1.37;86.23
69911;BME280;63555;49.920;17.868;2023-01-31T08:05:33;98696.88;;;1.41;85.77
69911;BME280;63555;49.920;17.868;2023-01-31T08:10:33;98700.03;;;1.49;85.94
69911;BME280;63555;49.920;17.868;2023-01-31T08:15:34;98710.78;;;1.62;86.05
69911;BME280;63555;49.920;17.868;2023-01-31T08:20:34;98711.31;;;1.70;86.63
69911;BME280;63555;49.920;17.868;2023-01-31T08:25:36;98721.41;;;1.77;86.77
69911;BME280;63555;49.920;17.868;2023-01-31T08:30:42;98731.56;;;1.83;86.86
69911;BME280;63555;49.920;17.868;2023-01-31T08:35:42;98735.94;;;1.83;86.22
69911;BME280;63555;49.920;17.868;2023-01-31T08:40:43;98739.31;;;1.85;86.02
69911;BME280;63555;49.920;17.868;2023-01-31T08:45:44;98741.66;;;1.91;86.34
69911;BME280;63555;49.920;17.868;2023-01-31T08:50:44;98747.44;;;1.98;85.52
69911;BME280;63555;49.920;17.868;2023-01-31T08:55:45;98758.38;;;2.06;85.69
69911;BME280;63555;49.920;17.868;2023-01-31T09:00:45;98760.66;;;2.13;85.47
69911;BME280;63555;49.920;17.868;2023-01-31T09:05:45;98772.75;;;2.14;84.52
69911;BME280;63555;49.920;17.868;2023-01-31T09:10:51;98774.25;;;2.20;84.32
69911;BME280;63555;49.920;17.868;2023-01-31T09:15:59;98771.88;;;2.36;84.28
69911;BME280;63555;49.920;17.868;2023-01-31T09:21:15;98774.53;;;2.54;84.07
69911;BME280;63555;49.920;17.868;2023-01-31T09:26:16;98765.31;;;2.68;84.10
69911;BME280;63555;49.920;17.868;2023-01-31T09:31:18;98763.72;;;3.03;85.75
69911;BME280;63555;49.920;17.868;2023-01-31T09:36:21;98756.56;;;4.85;87.91
69911;BME280;63555;49.920;17.868;2023-01-31T09:46:44;98766.72;;;8.16;78.86
69911;BME280;63555;49.920;17.868;2023-01-31T09:51:51;98780.03;;;7.31;77.09
69911;BME280;63555;49.920;17.868;2023-01-31T10:02:28;98773.56;;;5.58;80.04
69911;BME280;63555;49.920;17.868;2023-01-31T10:12:40;98773.84;;;4.88;80.51
69911;BME280;63555;49.920;17.868;2023-01-31T10:17:46;98762.19;;;4.77;80.77
69911;BME280;63555;49.920;17.868;2023-01-31T10:22:59;98757.66;;;4.81;80.27
69911;BME280;63555;49.920;17.868;2023-01-31T10:28:08;98752.22;;;4.68;80.22
69911;BME280;63555;49.920;17.868;2023-01-31T10:38:29;98755.25;;;4.61;79.03
69911;BME280;63555;49.920;17.868;2023-01-31T10:48:32;98750.94;;;4.25;79.91
69911;BME280;63555;49.920;17.868;2023-01-31T10:59:01;98753.97;;;4.35;79.24
69911;BME280;63555;49.920;17.868;2023-01-31T11:04:16;98749.59;;;4.35;79.28
69911;BME280;63555;49.920;17.868;2023-01-31T11:09:21;98730.44;;;4.52;79.97
69911;BME280;63555;49.920;17.868;2023-01-31T11:14:23;98712.91;;;5.20;80.28
69911;BME280;63555;49.920;17.868;2023-01-31T11:19:30;98715.84;;;5.61;78.99
69911;BME280;63555;49.920;17.868;2023-01-31T11:24:36;98711.63;;;5.59;77.65
69911;BME280;63555;49.920;17.868;2023-01-31T11:29:45;98708.09;;;5.28;77.80
69911;BME280;63555;49.920;17.868;2023-01-31T11:35:00;98706.78;;;5.04;78.67
69911;BME280;63555;49.920;17.868;2023-01-31T11:40:19;98700.34;;;4.78;78.71
69911;BME280;63555;49.920;17.868;2023-01-31T11:45:33;98698.38;;;4.66;79.82
69911;BME280;63555;49.920;17.868;2023-01-31T11:50:38;98694.31;;;5.09;81.04
69911;BME280;63555;49.920;17.868;2023-01-31T11:55:41;98696.34;;;5.67;79.96
69911;BME280;63555;49.920;17.868;2023-01-31T12:00:54;98686.88;;;5.64;77.21
69911;BME280;63555;49.920;17.868;2023-01-31T12:06:04;98685.53;;;5.73;78.02
69911;BME280;63555;49.920;17.868;2023-01-31T12:16:22;98684.78;;;5.55;77.74
69911;BME280;63555;49.920;17.868;2023-01-31T12:21:46;98684.47;;;5.30;78.26
69911;BME280;63555;49.920;17.868;2023-01-31T12:26:53;98679.16;;;5.16;78.66
69911;BME280;63555;49.920;17.868;2023-01-31T12:42:57;98673.31;;;4.95;79.14
69911;BME280;63555;49.920;17.868;2023-01-31T12:48:24;98658.81;;;4.73;78.66
69911;BME280;63555;49.920;17.868;2023-01-31T12:53:46;98650.19;;;4.56;79.12
69911;BME280;63555;49.920;17.868;2023-01-31T12:59:29;98638.97;;;4.54;79.25
69911;BME280;63555;49.920;17.868;2023-01-31T13:04:45;98638.38;;;4.48;79.07
69911;BME280;63555;49.920;17.868;2023-01-31T13:09:49;98628.94;;;4.46;79.26
69911;BME280;63555;49.920;17.868;2023-01-31T13:15:15;98620.88;;;4.51;78.78
69911;BME280;63555;49.920;17.868;2023-01-31T13:20:28;98631.31;;;4.51;78.37
69911;BME280;63555;49.920;17.868;2023-01-31T13:31:20;98631.75;;;4.08;77.80
69911;BME280;63555;49.920;17.868;2023-01-31T13:36:27;98637.00;;;3.91;77.81
69911;BME280;63555;49.920;17.868;2023-01-31T13:41:31;98623.66;;;3.80;78.15
69911;BME280;63555;49.920;17.868;2023-01-31T13:46:41;98613.44;;;3.75;77.81
69911;BME280;63555;49.920;17.868;2023-01-31T13:51:58;98623.97;;;3.74;77.54
69911;BME280;63555;49.920;17.868;2023-01-31T13:56:59;98612.59;;;3.75;78.11
69911;BME280;63555;49.920;17.868;2023-01-31T14:02:02;98603.16;;;3.72;78.42
69911;BME280;63555;49.920;17.868;2023-01-31T14:27:23;98578.09;;;3.53;77.17
69911;BME280;63555;49.920;17.868;2023-01-31T14:32:45;98573.53;;;3.39;77.47
69911;BME280;63555;49.920;17.868;2023-01-31T15:04:54;98560.03;;;2.59;77.54
69911;BME280;63555;49.920;17.868;2023-01-31T15:09:55;98555.97;;;2.53;77.95
69911;BME280;63555;49.920;17.868;2023-01-31T15:14:56;98557.94;;;2.48;77.37
69911;BME280;63555;49.920;17.868;2023-01-31T15:20:12;98551.13;;;2.45;77.64
69911;BME280;63555;49.920;17.868;2023-01-31T15:25:42;98542.47;;;2.45;77.57
69911;BME280;63555;49.920;17.868;2023-01-31T15:30:42;98538.19;;;2.44;77.68
69911;BME280;63555;49.920;17.868;2023-01-31T15:35:53;98540.78;;;2.44;77.43
69911;BME280;63555;49.920;17.868;2023-01-31T15:46:27;98546.25;;;2.38;77.38
69911;BME280;63555;49.920;17.868;2023-01-31T15:51:28;98536.97;;;2.32;76.73
69911;BME280;63555;49.920;17.868;2023-01-31T15:56:29;98531.16;;;2.27;77.23
69911;BME280;63555;49.920;17.868;2023-01-31T16:01:29;98546.81;;;2.26;77.23
69911;BME280;63555;49.920;17.868;2023-01-31T16:06:37;98547.81;;;2.23;76.98
69911;BME280;63555;49.920;17.868;2023-01-31T16:11:40;98541.06;;;2.19;77.39
69911;BME280;63555;49.920;17.868;2023-01-31T16:16:41;98543.88;;;2.14;76.99
69911;BME280;63555;49.920;17.868;2023-01-31T16:21:44;98544.91;;;2.10;77.55
69911;BME280;63555;49.920;17.868;2023-01-31T16:26:53;98545.13;;;2.06;77.57
69911;BME280;63555;49.920;17.868;2023-01-31T16:31:57;98534.94;;;2.01;77.71
69911;BME280;63555;49.920;17.868;2023-01-31T16:41:58;98533.38;;;1.97;77.63
69911;BME280;63555;49.920;17.868;2023-01-31T16:47:00;98528.25;;;1.96;77.16
69911;BME280;63555;49.920;17.868;2023-01-31T16:52:17;98537.72;;;1.97;77.22
69911;BME280;63555;49.920;17.868;2023-01-31T17:02:39;98516.72;;;1.82;77.62
69911;BME280;63555;49.920;17.868;2023-01-31T17:07:42;98521.63;;;1.68;77.92
69911;BME280;63555;49.920;17.868;2023-01-31T17:12:43;98512.75;;;1.53;78.76
69911;BME280;63555;49.920;17.868;2023-01-31T17:17:44;98516.72;;;1.42;79.43
69911;BME280;63555;49.920;17.868;2023-01-31T17:22:45;98509.19;;;1.36;79.39
69911;BME280;63555;49.920;17.868;2023-01-31T17:27:46;98502.38;;;1.33;79.05
69911;BME280;63555;49.920;17.868;2023-01-31T17:32:47;98495.41;;;1.34;79.58
69911;BME280;63555;49.920;17.868;2023-01-31T17:37:48;98485.75;;;1.37;79.48
69911;BME280;63555;49.920;17.868;2023-01-31T17:42:55;98484.75;;;1.40;79.51
69911;BME280;63555;49.920;17.868;2023-01-31T17:47:56;98476.84;;;1.43;79.98
69911;BME280;63555;49.920;17.868;2023-01-31T17:52:57;98456.78;;;1.46;79.53
69911;BME280;63555;49.920;17.868;2023-01-31T17:57:57;98448.78;;;1.51;79.64
69911;BME280;63555;49.920;17.868;2023-01-31T18:02:58;98443.56;;;1.51;79.57
69911;BME280;63555;49.920;17.868;2023-01-31T18:07:58;98446.25;;;1.49;79.79
69911;BME280;63555;49.920;17.868;2023-01-31T18:12:59;98430.44;;;1.54;79.93
69911;BME280;63555;49.920;17.868;2023-01-31T18:17:59;98434.47;;;1.61;80.00
69911;BME280;63555;49.920;17.868;2023-01-31T18:23:00;98412.56;;;1.67;79.63
69911;BME280;63555;49.920;17.868;2023-01-31T18:28:00;98395.91;;;1.71;79.52
69911;BME280;63555;49.920;17.868;2023-01-31T18:33:00;98373.34;;;1.71;79.40
69911;BME280;63555;49.920;17.868;2023-01-31T18:38:02;98388.25;;;1.68;79.83
69911;BME280;63555;49.920;17.868;2023-01-31T18:43:05;98368.50;;;1.64;79.77
69911;BME280;63555;49.920;17.868;2023-01-31T18:48:06;98367.59;;;1.65;79.79
69911;BME280;63555;49.920;17.868;2023-01-31T18:53:06;98360.50;;;1.68;79.76
69911;BME280;63555;49.920;17.868;2023-01-31T18:58:07;98358.66;;;1.70;79.71
69911;BME280;63555;49.920;17.868;2023-01-31T19:03:07;98343.00;;;1.72;79.28
69911;BME280;63555;49.920;17.868;2023-01-31T19:08:08;98339.56;;;1.71;78.59
69911;BME280;63555;49.920;17.868;2023-01-31T19:13:08;98338.63;;;1.74;78.73
69911;BME280;63555;49.920;17.868;2023-01-31T19:18:09;98329.41;;;1.85;78.81
69911;BME280;63555;49.920;17.868;2023-01-31T19:23:10;98324.59;;;1.95;78.64
69911;BME280;63555;49.920;17.868;2023-01-31T19:28:11;98318.34;;;1.99;78.11
69911;BME280;63555;49.920;17.868;2023-01-31T19:33:11;98299.13;;;2.02;77.92
69911;BME280;63555;49.920;17.868;2023-01-31T19:38:11;98306.09;;;2.01;77.66
69911;BME280;63555;49.920;17.868;2023-01-31T19:43:13;98298.16;;;2.04;78.64
69911;BME280;63555;49.920;17.868;2023-01-31T19:48:13;98303.75;;;2.14;78.52
69911;BME280;63555;49.920;17.868;2023-01-31T19:53:13;98299.78;;;2.24;78.23
69911;BME280;63555;49.920;17.868;2023-01-31T19:58:14;98289.97;;;2.29;77.44
69911;BME280;63555;49.920;17.868;2023-01-31T20:03:14;98274.97;;;2.34;77.28
69911;BME280;63555;49.920;17.868;2023-01-31T20:08:14;98269.84;;;2.33;76.76
69911;BME280;63555;49.920;17.868;2023-01-31T20:13:15;98267.41;;;2.30;77.57
69911;BME280;63555;49.920;17.868;2023-01-31T20:18:15;98278.56;;;2.32;77.30
69911;BME280;63555;49.920;17.868;2023-01-31T20:23:16;98271.38;;;2.37;76.74
69911;BME280;63555;49.920;17.868;2023-01-31T20:28:17;98269.47;;;2.40;76.60
69911;BME280;63555;49.920;17.868;2023-01-31T20:33:19;98268.41;;;2.44;76.79
69911;BME280;63555;49.920;17.868;2023-01-31T20:38:19;98270.91;;;2.46;77.14
69911;BME280;63555;49.920;17.868;2023-01-31T20:43:22;98276.88;;;2.48;76.60
69911;BME280;63555;49.920;17.868;2023-01-31T20:48:23;98276.88;;;2.48;76.49
69911;BME280;63555;49.920;17.868;2023-01-31T20:53:23;98282.09;;;2.48;76.57
69911;BME280;63555;49.920;17.868;2023-01-31T20:58:25;98270.06;;;2.45;76.02
69911;BME280;63555;49.920;17.868;2023-01-31T21:03:26;98255.38;;;2.44;76.98
69911;BME280;63555;49.920;17.868;2023-01-31T21:08:28;98260.44;;;2.47;76.82
69911;BME280;63555;49.920;17.868;2023-01-31T21:13:28;98279.34;;;2.51;77.12
69911;BME280;63555;49.920;17.868;2023-01-31T21:18:33;98285.16;;;2.56;76.89
69911;BME280;63555;49.920;17.868;2023-01-31T21:23:35;98279.78;;;2.59;76.77
69911;BME280;63555;49.920;17.868;2023-01-31T21:28:36;98284.22;;;2.57;76.17
69911;BME280;63555;49.920;17.868;2023-01-31T21:33:38;98289.06;;;2.47;76.95
69911;BME280;63555;49.920;17.868;2023-01-31T21:38:39;98305.13;;;2.38;76.37
69911;BME280;63555;49.920;17.868;2023-01-31T21:43:39;98297.47;;;2.35;76.98
69911;BME280;63555;49.920;17.868;2023-01-31T21:48:40;98304.28;;;2.38;76.64
69911;BME280;63555;49.920;17.868;2023-01-31T21:53:41;98278.34;;;2.36;77.10
69911;BME280;63555;49.920;17.868;2023-01-31T21:58:42;98255.25;;;2.30;76.90
69911;BME280;63555;49.920;17.868;2023-01-31T22:03:44;98250.28;;;2.26;77.00
69911;BME280;63555;49.920;17.868;2023-01-31T22:08:55;98245.91;;;2.26;77.24
69911;BME280;63555;49.920;17.868;2023-01-31T22:13:55;98215.53;;;2.27;76.87
69911;BME280;63555;49.920;17.868;2023-01-31T22:18:57;98187.31;;;2.19;76.62
69911;BME280;63555;49.920;17.868;2023-01-31T22:23:59;98225.94;;;2.09;76.77
69911;BME280;63555;49.920;17.868;2023-01-31T22:29:02;98223.72;;;2.02;77.48
69911;BME280;63555;49.920;17.868;2023-01-31T22:34:04;98231.59;;;2.00;76.93
69911;BME280;63555;49.920;17.868;2023-01-31T22:39:05;98243.53;;;2.04;77.69
69911;BME280;63555;49.920;17.868;2023-01-31T22:44:06;98229.25;;;2.13;77.20
69911;BME280;63555;49.920;17.868;2023-01-31T22:49:06;98230.22;;;2.28;77.79
69911;BME280;63555;49.920;17.868;2023-01-31T22:54:06;98228.59;;;2.42;77.54
69911;BME280;63555;49.920;17.868;2023-01-31T22:59:08;98254.22;;;2.50;77.54
69911;BME280;63555;49.920;17.868;2023-01-31T23:04:09;98259.34;;;2.51;77.21
69911;BME280;63555;49.920;17.868;2023-01-31T23:09:09;98281.09;;;2.50;77.55
69911;BME280;63555;49.920;17.868;2023-01-31T23:14:10;98280.63;;;2.42;77.29
69911;BME280;63555;49.920;17.868;2023-01-31T23:19:11;98291.59;;;2.32;77.79
69911;BME280;63555;49.920;17.868;2023-01-31T23:24:12;98281.31;;;2.11;78.10
69911;BME280;63555;49.920;17.868;2023-01-31T23:29:14;98278.56;;;1.97;77.79
69911;BME280;63555;49.920;17.868;2023-01-31T23:34:15;98274.09;;;1.82;77.94
69911;BME280;63555;49.920;17.868;2023-01-31T23:39:15;98278.94;;;1.71;78.58
69911;BME280;63555;49.920;17.868;2023-01-31T23:44:15;98262.44;;;1.72;78.58
69911;BME280;63555;49.920;17.868;2023-01-31T23:49:16;98281.00;;;1.83;78.76
69911;BME280;63555;49.920;17.868;2023-01-31T23:54:16;98275.66;;;1.86;78.83
69911;BME280;63555;49.920;17.868;2023-01-31T23:59:16;98263.41;;;1.88;78.91
